createdAt,value
2019-04-05T00:00:32.118Z,73.56
2019-04-05T00:02:58.479Z,73.65
2019-04-05T00:05:25.113Z,74.27
2019-04-05T00:07:51.471Z,74.59
2019-04-05T00:10:18.290Z,74.86
2019-04-05T00:12:45.187Z,74.93
2019-04-05T00:15:15.688Z,75.09
2019-04-05T00:17:40.240Z,74.89
2019-04-05T00:20:07.166Z,74.18
2019-04-05T00:22:33.583Z,73.53
2019-04-05T00:24:59.975Z,73.11
2019-04-05T00:27:26.603Z,72.62
2019-04-05T00:29:54.378Z,72.09
2019-04-05T00:32:21.006Z,72.39
2019-04-05T00:34:47.649Z,74.34
2019-04-05T00:37:14.008Z,73.70
2019-04-05T00:39:40.723Z,72.89
2019-04-05T00:42:07.138Z,72.33
2019-04-05T00:44:33.544Z,72.13
2019-04-05T00:46:59.885Z,73.08
2019-04-05T00:49:26.196Z,72.85
2019-04-05T00:51:52.565Z,73.04
2019-04-05T00:54:19.228Z,73.01
2019-04-05T00:56:45.569Z,72.04
2019-04-05T00:59:11.895Z,72.52
2019-04-05T01:01:39.344Z,73.46
2019-04-05T01:04:05.685Z,72.75
2019-04-05T01:06:32.314Z,73.10
2019-04-05T01:08:59.159Z,73.29
2019-04-05T01:11:25.483Z,74.32
2019-04-05T01:13:52.719Z,73.71
2019-04-05T01:16:19.047Z,73.37
2019-04-05T01:18:45.379Z,73.26
2019-04-05T01:21:17.404Z,73.00
2019-04-05T01:23:43.846Z,72.80
2019-04-05T01:26:12.115Z,73.60
2019-04-05T01:28:38.451Z,73.46
2019-04-05T01:31:05.141Z,73.58
2019-04-05T01:33:31.732Z,73.22
2019-04-05T01:35:58.314Z,73.44
2019-04-05T01:38:24.648Z,73.84
2019-04-05T01:40:51.522Z,73.49
2019-04-05T01:43:17.845Z,73.38
2019-04-05T01:45:53.626Z,73.21
2019-04-05T01:48:13.702Z,73.59
2019-04-05T01:50:40.040Z,73.48
2019-04-05T01:53:07.553Z,73.37
2019-04-05T01:55:33.885Z,73.71
2019-04-05T01:58:00.213Z,73.26
2019-04-05T02:00:26.847Z,73.15
2019-04-05T02:02:53.501Z,72.70
2019-04-05T02:05:20.061Z,73.63
2019-04-05T02:07:46.684Z,74.16
2019-04-05T02:10:13.688Z,74.53
2019-04-05T02:12:40.167Z,73.89
2019-04-05T02:15:07.297Z,74.50
2019-04-05T02:17:35.895Z,74.77
2019-04-05T02:20:05.312Z,74.64
2019-04-05T02:22:31.617Z,73.39
2019-04-05T02:24:57.948Z,73.16
2019-04-05T02:27:24.246Z,73.24
2019-04-05T02:29:50.700Z,73.94
2019-04-05T02:32:17.086Z,73.83
2019-04-05T02:34:43.703Z,74.13
2019-04-05T02:37:10.073Z,73.42
2019-04-05T02:39:36.430Z,73.29
2019-04-05T02:42:02.770Z,74.09
2019-04-05T02:44:30.189Z,73.84
2019-04-05T02:46:56.757Z,73.49
2019-04-05T02:49:26.875Z,73.13
2019-04-05T02:51:55.224Z,73.19
2019-04-05T02:54:21.670Z,74.63
2019-04-05T02:56:49.177Z,74.51
2019-04-05T02:59:16.826Z,74.56
2019-04-05T03:01:43.338Z,74.61
2019-04-05T03:04:10.316Z,73.86
2019-04-05T03:06:36.753Z,74.18
2019-04-05T03:09:05.148Z,73.57
2019-04-05T03:11:32.605Z,73.24
2019-04-05T03:14:00.972Z,72.68
2019-04-05T03:16:41.012Z,72.33
2019-04-05T03:19:11.481Z,72.65
2019-04-05T03:21:43.367Z,72.41
2019-04-05T03:24:14.996Z,72.34
2019-04-05T03:26:46.624Z,72.06
2019-04-05T03:29:13.394Z,72.11
2019-04-05T03:31:40.566Z,71.91
2019-04-05T03:34:07.645Z,71.82
2019-04-05T03:36:39.012Z,71.57
2019-04-05T03:39:06.353Z,71.42
2019-04-05T03:41:33.938Z,71.16
2019-04-05T03:44:00.557Z,71.58
2019-04-05T03:46:27.639Z,71.41
2019-04-05T03:48:54.855Z,71.19
2019-04-05T03:51:22.440Z,71.65
2019-04-05T03:53:49.340Z,71.44
2019-04-05T03:56:16.095Z,71.55
2019-04-05T03:58:42.900Z,71.46
2019-04-05T04:01:09.279Z,71.03
2019-04-05T04:03:35.760Z,71.89
2019-04-05T04:06:02.722Z,71.75
2019-04-05T04:08:29.545Z,71.54
2019-04-05T04:10:56.267Z,71.79
2019-04-05T04:13:22.663Z,71.24
2019-04-05T04:15:49.081Z,70.78
2019-04-05T04:18:15.420Z,70.32
2019-04-05T04:20:49.339Z,69.41
2019-04-05T04:23:17.223Z,69.43
2019-04-05T04:25:44.156Z,69.98
2019-04-05T04:28:11.072Z,70.36
2019-04-05T04:30:37.507Z,70.50
2019-04-05T04:33:04.994Z,70.36
2019-04-05T04:35:32.220Z,70.11
2019-04-05T04:37:58.616Z,70.65
2019-04-05T04:40:25.440Z,70.89
2019-04-05T04:42:52.481Z,70.93
2019-04-05T04:45:19.229Z,70.31
2019-04-05T04:47:45.871Z,70.33
2019-04-05T04:50:12.399Z,70.67
2019-04-05T04:52:39.137Z,70.21
2019-04-05T04:55:06.545Z,69.97
2019-04-05T04:57:33.454Z,70.08
2019-04-05T04:59:59.974Z,70.07
2019-04-05T05:02:26.345Z,69.67
2019-04-05T05:04:53.084Z,69.08
2019-04-05T05:07:19.460Z,69.05
2019-04-05T05:09:46.010Z,68.89
2019-04-05T05:12:12.378Z,68.30
2019-04-05T05:14:39.073Z,68.05
2019-04-05T05:17:05.868Z,67.37
2019-04-05T05:19:32.199Z,67.56
2019-04-05T05:21:58.597Z,67.11
2019-04-05T05:24:25.003Z,66.80
2019-04-05T05:26:53.188Z,66.53
2019-04-05T05:29:19.482Z,66.42
2019-04-05T05:31:46.230Z,65.91
2019-04-05T05:34:13.030Z,65.81
2019-04-05T05:36:39.733Z,65.53
2019-04-05T05:39:06.320Z,65.19
2019-04-05T05:41:32.729Z,64.94
2019-04-05T05:43:59.179Z,65.22
2019-04-05T05:46:25.543Z,65.10
2019-04-05T05:48:51.918Z,65.26
2019-04-05T05:51:18.231Z,64.35
2019-04-05T05:53:44.849Z,63.22
2019-04-05T05:56:11.188Z,62.37
2019-04-05T05:58:37.534Z,61.95
2019-04-05T06:01:03.877Z,61.31
2019-04-05T06:03:30.238Z,61.40
2019-04-05T06:06:04.160Z,61.28
2019-04-05T06:08:25.042Z,61.89
2019-04-05T06:10:51.397Z,61.35
2019-04-05T06:13:17.747Z,61.08
2019-04-05T06:15:44.341Z,61.19
2019-04-05T06:18:12.689Z,60.78
2019-04-05T06:20:40.895Z,60.77
2019-04-05T06:23:07.236Z,60.06
2019-04-05T06:25:33.589Z,58.94
2019-04-05T06:28:00.107Z,60.29
2019-04-05T06:30:28.727Z,60.25
2019-04-05T06:32:55.168Z,59.01
2019-04-05T06:35:21.875Z,59.34
2019-04-05T06:37:48.234Z,57.96
2019-04-05T06:40:14.531Z,57.33
2019-04-05T06:42:40.912Z,57.51
2019-04-05T06:45:07.314Z,57.21
2019-04-05T06:47:33.717Z,56.92
2019-04-05T06:50:00.027Z,56.29
2019-04-05T06:52:26.672Z,56.33
2019-04-05T06:54:53.332Z,57.10
2019-04-05T06:57:19.653Z,56.70
2019-04-05T06:59:46.007Z,56.55
2019-04-05T07:02:12.309Z,55.58
2019-04-05T07:04:38.626Z,55.24
2019-04-05T07:07:04.950Z,55.43
2019-04-05T07:09:33.924Z,55.56
2019-04-05T07:11:59.811Z,56.02
2019-04-05T07:14:27.409Z,56.20
2019-04-05T07:16:55.209Z,57.00
2019-04-05T07:19:21.719Z,57.59
2019-04-05T07:21:48.034Z,57.62
2019-04-05T07:24:14.405Z,57.75
2019-04-05T07:26:40.868Z,58.14
2019-04-05T07:29:07.184Z,57.98
2019-04-05T07:31:33.546Z,57.63
2019-04-05T07:34:00.143Z,56.50
2019-04-05T07:36:26.528Z,55.81
2019-04-05T07:38:52.861Z,55.71
2019-04-05T07:41:21.228Z,55.44
2019-04-05T07:43:47.553Z,55.00
2019-04-05T07:46:13.928Z,54.21
2019-04-05T07:48:45.031Z,53.39
2019-04-05T07:51:09.171Z,52.52
2019-04-05T07:53:35.541Z,51.51
2019-04-05T07:56:02.510Z,50.34
2019-04-05T07:58:29.181Z,49.49
2019-04-05T08:00:56.207Z,48.98
2019-04-05T08:03:23.053Z,48.46
2019-04-05T08:05:50.761Z,49.47
2019-04-05T08:08:41.239Z,48.65
2019-04-05T08:11:08.047Z,48.80
2019-04-05T08:13:37.695Z,48.94
2019-04-05T08:16:04.640Z,48.69
2019-04-05T08:18:31.278Z,49.96
2019-04-05T08:20:57.605Z,49.36
2019-04-05T08:23:24.233Z,48.61
2019-04-05T08:25:50.881Z,47.70
2019-04-05T08:28:17.524Z,46.76
2019-04-05T08:30:43.874Z,45.86
2019-04-05T08:33:10.348Z,45.92
2019-04-05T08:35:36.701Z,44.56
2019-04-05T08:38:03.741Z,45.54
2019-04-05T08:40:30.130Z,45.50
2019-04-05T08:42:56.569Z,45.39
2019-04-05T08:45:23.175Z,45.95
2019-04-05T08:47:49.814Z,46.49
2019-04-05T08:50:16.275Z,45.71
2019-04-05T08:52:42.606Z,46.99
2019-04-05T08:55:09.041Z,48.61
2019-04-05T08:57:35.661Z,50.35
2019-04-05T09:00:06.490Z,49.70
2019-04-05T09:02:33.147Z,50.74
2019-04-05T09:04:59.569Z,49.67
2019-04-05T09:07:26.184Z,48.88
2019-04-05T09:09:52.516Z,48.62
2019-04-05T09:12:19.129Z,48.41
2019-04-05T09:14:45.485Z,47.84
2019-04-05T09:17:12.819Z,47.43
2019-04-05T09:19:39.131Z,47.14
2019-04-05T09:22:06.588Z,47.23
2019-04-05T09:24:33.277Z,46.47
2019-04-05T09:27:01.040Z,46.31
2019-04-05T09:29:28.811Z,45.52
2019-04-05T09:31:55.436Z,45.32
2019-04-05T09:34:23.178Z,45.61
2019-04-05T09:36:49.744Z,44.71
2019-04-05T09:39:16.063Z,44.70
2019-04-05T09:41:42.458Z,44.72
2019-04-05T09:44:08.769Z,44.42
2019-04-05T09:46:46.064Z,44.61
2019-04-05T09:49:03.351Z,45.21
2019-04-05T09:51:30.149Z,44.62
2019-04-05T09:53:56.459Z,44.56
2019-04-05T09:56:22.792Z,43.58
2019-04-05T09:58:49.108Z,43.93
2019-04-05T10:01:15.836Z,44.52
2019-04-05T10:03:42.186Z,43.49
2019-04-05T10:06:08.511Z,43.09
2019-04-05T10:08:35.120Z,42.10
2019-04-05T10:11:01.452Z,43.15
2019-04-05T10:13:27.983Z,42.45
2019-04-05T10:15:54.418Z,42.70
2019-04-05T10:18:21.128Z,41.58
2019-04-05T10:20:47.486Z,40.74
2019-04-05T10:23:14.150Z,40.78
2019-04-05T10:25:40.517Z,40.44
2019-04-05T10:28:07.110Z,40.26
2019-04-05T10:30:33.457Z,39.81
2019-04-05T10:32:59.785Z,40.52
2019-04-05T10:35:26.165Z,39.94
2019-04-05T10:37:52.520Z,40.16
2019-04-05T10:40:18.817Z,39.99
2019-04-05T10:42:45.109Z,39.30
2019-04-05T10:45:12.804Z,39.36
2019-04-05T10:47:39.264Z,39.75
2019-04-05T10:50:09.835Z,39.59
2019-04-05T10:52:37.258Z,39.98
2019-04-05T10:55:04.550Z,39.06
2019-04-05T10:57:31.194Z,38.61
2019-04-05T10:59:57.810Z,38.69
2019-04-05T11:02:25.150Z,38.35
2019-04-05T11:04:51.480Z,37.78
2019-04-05T11:07:19.169Z,38.18
2019-04-05T11:09:45.488Z,39.29
2019-04-05T11:12:12.129Z,38.32
2019-04-05T11:14:38.474Z,37.56
2019-04-05T11:17:05.233Z,38.06
2019-04-05T11:19:34.821Z,37.34
2019-04-05T11:22:01.133Z,36.37
2019-04-05T11:24:27.876Z,36.00
2019-04-05T11:26:54.197Z,35.33
2019-04-05T11:29:20.611Z,34.79
2019-04-05T11:31:57.071Z,35.19
2019-04-05T11:34:16.080Z,34.05
2019-04-05T11:36:42.811Z,33.59
2019-04-05T11:39:09.575Z,33.14
2019-04-05T11:41:36.510Z,31.31
2019-04-05T11:44:04.107Z,28.70
2019-04-05T11:46:34.510Z,27.56
2019-04-05T11:49:03.845Z,25.15
2019-04-05T11:51:29.800Z,22.52
2019-04-05T11:53:56.464Z,21.08
2019-04-05T11:56:23.081Z,20.88
2019-04-05T11:58:50.558Z,19.72
2019-04-05T12:01:19.787Z,20.26
2019-04-05T12:03:46.140Z,21.52
2019-04-05T12:06:12.457Z,20.94
2019-04-05T12:08:39.907Z,23.14
2019-04-05T12:11:06.258Z,24.17
2019-04-05T12:13:33.502Z,24.46
2019-04-05T12:16:00.041Z,24.72
2019-04-05T12:18:26.718Z,24.80
2019-04-05T12:21:00.029Z,24.38
2019-04-05T12:23:33.394Z,25.39
2019-04-05T12:26:07.949Z,26.19
2019-04-05T12:28:34.277Z,27.38
2019-04-05T12:31:01.380Z,27.45
2019-04-05T12:33:27.912Z,24.85
2019-04-05T12:35:56.567Z,25.11
2019-04-05T12:38:31.555Z,23.39
2019-04-05T12:41:01.703Z,24.63
2019-04-05T12:43:28.343Z,26.85
2019-04-05T12:45:54.756Z,28.03
2019-04-05T12:48:21.657Z,25.78
2019-04-05T12:51:00.514Z,22.85
2019-04-05T12:53:17.059Z,20.26
2019-04-05T12:55:43.687Z,18.79
2019-04-05T12:58:10.349Z,18.15
2019-04-05T13:00:39.035Z,21.31
2019-04-05T13:03:05.506Z,23.61
2019-04-05T13:05:32.140Z,21.75
2019-04-05T13:07:58.814Z,19.17
2019-04-05T13:10:26.604Z,16.21
2019-04-05T13:12:56.832Z,15.54
2019-04-05T13:15:22.212Z,17.05
2019-04-05T13:17:48.862Z,16.10
2019-04-05T13:20:15.513Z,15.93
2019-04-05T13:22:41.812Z,18.18
2019-04-05T13:25:10.819Z,20.30
2019-04-05T13:27:36.848Z,21.12
2019-04-05T13:30:06.176Z,18.80
2019-04-05T13:32:32.503Z,16.77
2019-04-05T13:34:59.221Z,16.83
2019-04-05T13:37:25.572Z,16.46
2019-04-05T13:39:53.950Z,16.79
2019-04-05T13:42:20.387Z,17.15
2019-04-05T13:44:46.692Z,17.62
2019-04-05T13:47:13.441Z,22.92
2019-04-05T13:49:40.641Z,20.91
2019-04-05T13:52:12.065Z,19.29
2019-04-05T13:54:38.330Z,16.24
2019-04-05T13:57:08.578Z,14.94
2019-04-05T13:59:35.772Z,16.56
2019-04-05T14:02:06.443Z,16.86
2019-04-05T14:04:30.876Z,15.92
2019-04-05T14:06:57.192Z,15.57
2019-04-05T14:09:23.839Z,16.50
2019-04-05T14:11:50.468Z,17.58
2019-04-05T14:14:16.818Z,16.38
2019-04-05T14:16:43.675Z,14.94
2019-04-05T14:19:10.049Z,15.14
2019-04-05T14:21:40.831Z,16.08
2019-04-05T14:24:07.387Z,18.44
2019-04-05T14:26:33.697Z,20.78
2019-04-05T14:29:03.426Z,20.31
2019-04-05T14:31:31.589Z,17.32
2019-04-05T14:33:58.518Z,16.91
2019-04-05T14:36:25.137Z,18.16
2019-04-05T14:38:51.486Z,22.18
2019-04-05T14:41:18.107Z,26.34
2019-04-05T14:43:45.040Z,27.18
2019-04-05T14:46:12.316Z,29.43
2019-04-05T14:48:38.958Z,32.29
2019-04-05T14:51:05.330Z,32.97
2019-04-05T14:53:32.308Z,33.14
2019-04-05T14:55:59.648Z,33.18
2019-04-05T14:58:26.129Z,34.21
2019-04-05T15:00:52.759Z,34.32
2019-04-05T15:03:19.076Z,34.78
2019-04-05T15:05:45.746Z,35.38
2019-04-05T15:08:12.401Z,35.62
2019-04-05T15:10:39.816Z,36.48
2019-04-05T15:13:06.266Z,31.34
2019-04-05T15:15:33.239Z,25.36
2019-04-05T15:17:59.684Z,23.17
2019-04-05T15:20:26.143Z,23.87
2019-04-05T15:22:52.638Z,23.90
2019-04-05T15:25:21.515Z,22.23
2019-04-05T15:27:51.725Z,22.69
2019-04-05T15:30:16.632Z,21.88
2019-04-05T15:32:43.393Z,22.39
2019-04-05T15:35:10.014Z,23.93
2019-04-05T15:37:37.726Z,22.25
2019-04-05T15:40:06.150Z,22.17
2019-04-05T15:42:33.469Z,21.90
2019-04-05T15:44:59.808Z,22.87
2019-04-05T15:47:26.475Z,21.34
2019-04-05T15:49:53.343Z,21.18
2019-04-05T15:52:20.083Z,21.38
2019-04-05T15:54:46.406Z,22.96
2019-04-05T15:57:12.715Z,24.18
2019-04-05T15:59:44.988Z,24.26
2019-04-05T16:02:11.322Z,24.92
2019-04-05T16:04:37.722Z,24.56
2019-04-05T16:07:04.054Z,26.63
2019-04-05T16:09:30.909Z,30.22
2019-04-05T16:11:57.974Z,31.90
2019-04-05T16:14:24.611Z,33.72
2019-04-05T16:16:51.249Z,35.86
2019-04-05T16:19:18.012Z,35.79
2019-04-05T16:21:44.939Z,36.32
2019-04-05T16:24:11.276Z,36.98
2019-04-05T16:26:41.637Z,36.77
2019-04-05T16:29:08.047Z,37.44
2019-04-05T16:31:34.778Z,38.46
2019-04-05T16:34:01.130Z,40.72
2019-04-05T16:36:30.684Z,41.37
2019-04-05T16:38:55.886Z,41.41
2019-04-05T16:41:24.420Z,41.50
2019-04-05T16:43:50.741Z,41.36
2019-04-05T16:46:17.450Z,40.88
2019-04-05T16:48:43.940Z,41.02
2019-04-05T16:51:10.758Z,41.18
2019-04-05T16:53:39.119Z,42.15
2019-04-05T16:56:05.490Z,41.85
2019-04-05T16:58:31.917Z,42.00
2019-04-05T17:00:58.276Z,42.44
2019-04-05T17:03:24.757Z,43.36
2019-04-05T17:05:51.526Z,44.70
2019-04-05T17:08:17.975Z,45.59
2019-04-05T17:10:44.580Z,46.19
2019-04-05T17:13:11.244Z,45.55
2019-04-05T17:15:37.551Z,46.49
2019-04-05T17:18:06.115Z,47.40
2019-04-05T17:20:32.755Z,47.87
2019-04-05T17:22:59.089Z,47.91
2019-04-05T17:25:26.548Z,48.13
2019-04-05T17:27:53.200Z,48.48
2019-04-05T17:30:19.578Z,49.30
2019-04-05T17:32:46.021Z,49.75
2019-04-05T17:35:12.423Z,48.88
2019-04-05T17:37:38.772Z,49.19
2019-04-05T17:40:06.289Z,49.63
2019-04-05T17:42:34.766Z,49.97
2019-04-05T17:45:01.501Z,50.50
2019-04-05T17:47:28.336Z,50.60
2019-04-05T17:49:54.972Z,50.60
2019-04-05T17:52:21.420Z,50.82
2019-04-05T17:54:48.062Z,50.97
2019-04-05T17:57:14.940Z,51.33
2019-04-05T17:59:42.226Z,50.92
2019-04-05T18:02:08.553Z,50.13
2019-04-05T18:04:34.915Z,50.55
2019-04-05T18:07:01.652Z,50.72
2019-04-05T18:09:29.255Z,51.02
2019-04-05T18:11:55.614Z,51.45
2019-04-05T18:14:22.027Z,51.97
2019-04-05T18:16:48.724Z,52.25
2019-04-05T18:19:15.347Z,52.85
2019-04-05T18:21:41.753Z,53.38
2019-04-05T18:24:08.106Z,53.59
2019-04-05T18:26:34.806Z,53.14
2019-04-05T18:29:01.127Z,53.33
2019-04-05T18:31:27.561Z,53.48
2019-04-05T18:33:54.283Z,53.79
2019-04-05T18:36:20.647Z,54.06
2019-04-05T18:38:48.846Z,54.41
2019-04-05T18:41:15.244Z,54.77
2019-04-05T18:43:41.885Z,54.93
2019-04-05T18:46:09.405Z,55.32
2019-04-05T18:48:35.741Z,55.55
2019-04-05T18:51:02.381Z,56.11
2019-04-05T18:53:37.534Z,56.35
2019-04-05T18:55:57.067Z,56.64
2019-04-05T18:58:23.435Z,57.02
2019-04-05T19:00:50.069Z,57.41
2019-04-05T19:03:16.529Z,57.72
2019-04-05T19:05:43.337Z,58.03
2019-04-05T19:08:09.736Z,58.26
2019-04-05T19:10:37.506Z,58.45
2019-04-05T19:13:04.685Z,58.72
2019-04-05T19:15:31.323Z,58.83
2019-04-05T19:17:57.649Z,58.77
2019-04-05T19:20:24.292Z,58.91
2019-04-05T19:22:51.843Z,59.09
2019-04-05T19:25:18.490Z,59.37
2019-04-05T19:27:45.241Z,59.45
2019-04-05T19:50:04.717Z,60.24
2019-04-05T19:52:31.369Z,60.39
2019-04-05T19:55:01.414Z,60.78
2019-04-05T19:57:28.059Z,61.07
2019-04-05T19:59:56.023Z,61.45
2019-04-05T20:02:22.733Z,61.70
2019-04-05T20:04:50.816Z,62.03
2019-04-05T20:07:17.193Z,62.22
2019-04-05T20:09:44.004Z,62.42
2019-04-05T20:12:10.755Z,62.76
2019-04-05T20:14:37.789Z,63.05
2019-04-05T20:17:04.151Z,63.93
2019-04-05T20:19:30.554Z,64.19
2019-04-05T20:21:58.080Z,64.47
2019-04-05T20:24:25.031Z,64.00
2019-04-05T20:26:51.587Z,64.44
2019-04-05T20:29:18.569Z,64.79
2019-04-05T20:31:45.064Z,64.64
2019-04-05T20:34:11.835Z,65.04
2019-04-05T20:36:38.383Z,65.17
2019-04-05T20:39:06.768Z,65.23
2019-04-05T20:41:33.435Z,65.62
2019-04-05T20:44:00.220Z,65.73
2019-04-05T20:46:26.840Z,65.97
2019-04-05T20:48:53.197Z,66.35
2019-04-05T20:51:19.625Z,66.50
2019-04-05T20:53:45.981Z,66.95
2019-04-05T20:56:12.378Z,67.24
2019-04-05T20:58:38.739Z,67.27
2019-04-05T21:01:10.807Z,67.84
2019-04-05T21:03:40.121Z,67.72
2019-04-05T21:06:06.722Z,67.92
2019-04-05T21:08:33.222Z,68.02
2019-04-05T21:10:59.551Z,68.57
2019-04-05T21:13:26.259Z,68.62
2019-04-05T21:15:53.017Z,68.89
2019-04-05T21:18:19.386Z,69.03
2019-04-05T21:20:45.726Z,69.11
2019-04-05T21:23:12.071Z,68.71
2019-04-05T21:25:39.477Z,68.85
2019-04-05T21:28:08.430Z,68.72
2019-04-05T21:30:34.797Z,68.76
2019-04-05T21:33:01.145Z,68.66
2019-04-05T21:35:27.919Z,68.73
2019-04-05T21:37:54.274Z,68.75
2019-04-05T21:40:21.749Z,68.69
2019-04-05T21:42:48.205Z,68.46
2019-04-05T21:45:14.878Z,68.57
2019-04-05T21:47:41.232Z,68.48
2019-04-05T21:50:09.993Z,68.34
2019-04-05T21:52:36.397Z,68.27
2019-04-05T21:55:05.110Z,68.80
2019-04-05T21:57:31.623Z,68.49
2019-04-05T21:59:58.288Z,68.98
2019-04-05T22:02:24.923Z,68.87
2019-04-05T22:04:51.565Z,68.21
2019-04-05T22:07:17.994Z,67.40
2019-04-05T22:09:44.360Z,67.10
2019-04-05T22:12:11.179Z,65.99
2019-04-05T22:14:37.797Z,65.41
2019-04-05T22:17:04.126Z,64.73
2019-04-05T22:19:30.434Z,64.25
2019-04-05T22:21:57.105Z,64.99
2019-04-05T22:24:23.474Z,64.88
2019-04-05T22:26:49.781Z,64.91
2019-04-05T22:29:16.529Z,65.75
2019-04-05T22:31:42.851Z,66.64
2019-04-05T22:34:09.198Z,66.27
2019-04-05T22:36:35.526Z,66.52
2019-04-05T22:39:01.990Z,66.59
2019-04-05T22:41:30.623Z,66.65
2019-04-05T22:43:56.963Z,67.08
2019-04-05T22:46:23.309Z,67.18
2019-04-05T22:48:49.641Z,66.87
2019-04-05T22:51:16.040Z,66.28
2019-04-05T22:53:42.375Z,66.32
2019-04-05T22:56:09.021Z,65.89
2019-04-05T22:58:35.384Z,65.39
2019-04-05T23:01:01.709Z,65.22
2019-04-05T23:03:28.034Z,65.18
2019-04-05T23:05:54.342Z,65.38
2019-04-05T23:08:20.670Z,65.47
2019-04-05T23:10:47.007Z,65.46
2019-04-05T23:13:13.354Z,65.72
2019-04-05T23:15:39.653Z,66.18
2019-04-05T23:18:05.999Z,66.43
2019-04-05T23:20:32.321Z,66.76
2019-04-05T23:22:58.690Z,67.27
2019-04-05T23:25:25.019Z,67.56
2019-04-05T23:27:51.660Z,67.96
2019-04-05T23:30:19.130Z,67.88
2019-04-05T23:32:45.438Z,67.91
2019-04-05T23:35:12.286Z,66.79
2019-04-05T23:37:38.580Z,65.16
2019-04-05T23:40:05.715Z,64.62
2019-04-05T23:42:32.013Z,64.59
2019-04-05T23:44:58.501Z,65.05
2019-04-05T23:47:25.154Z,65.67
2019-04-05T23:49:51.496Z,67.19
2019-04-05T23:52:17.948Z,68.05
2019-04-05T23:54:45.287Z,68.71
2019-04-05T23:57:11.678Z,68.58
2019-04-05T23:59:38.356Z,67.82
